PWSweather.com
Personal Weather Stations
Station Observations
AC5JC
Greenleaf Peninsula, Waco, Waco, TX 76710

Greenleaf Peninsula, WacoWaco, TX 76710

Lat: 31.565, Lon: -97.198

Elevation: 570

Station Type: Ambient WS-1400IP

http://ac5jc.dyndns.org

Latest ConditionsUpdated 2:00:00 PM CST Wednesday, Dec 12, 2018
Currently Today's Max Today's Min Today's Average
Temperature 64.9°F18.3°C 64.9°F18.3°C 48.6°F9.2°C 53.2°F11.8°C
Dew Point 56.0°F13.3°C 56.4°F13.6°C 46.0°F7.8°C 49.1°F9.5°C
Winds 5.1 mph S8.2 kmh S 14.2 mph -22.9 kmh - - 5.3 mph 8.5 kmh
Wind Gusts 9.8 mph15.8 kmh 24.8 mph39.9 kmh - -
Humidity 73% 95% 71% 86%
Pressure 29.30 in992.2 mb 29.52 in999.7 mb 29.30 in992.2 mb -
Hour Temp Dew Point Humidity Winds Wind Gusts Pressure Precip Precip Rate Daily Precip Total
02:00 PM 64.9°F18.3°C 56.0°F13.3°C 73% 5.1 mph S8.2 kmh S 9.8 mph15.8 kmh 29.30 in992.2 mb 0.00 in0.0 mm 0.00 in0.0 mm 0.00 in0.0 mm
01:55 PM 64.9°F18.3°C 56.4°F13.6°C 74% 6.9 mph SSW11.1 kmh SSW 12.3 mph19.8 kmh 29.30 in992.2 mb 0.00 in0.0 mm 0.00 in0.0 mm 0.00 in0.0 mm
01:50 PM 64.8°F18.2°C 56.0°F13.3°C 73% 6.6 mph S10.6 kmh S 12.3 mph19.8 kmh 29.30 in992.2 mb 0.00 in0.0 mm 0.00 in0.0 mm 0.00 in0.0 mm
01:45 PM 64.8°F18.2°C 56.1°F13.4°C 73% 4.5 mph SSW7.2 kmh SSW 9.8 mph15.8 kmh 29.30 in992.2 mb 0.00 in0.0 mm 0.00 in0.0 mm 0.00 in0.0 mm
01:40 PM 64.8°F18.2°C 56.2°F13.4°C 74% 7.2 mph S11.6 kmh S 15.0 mph24.1 kmh 29.30 in992.2 mb 0.00 in0.0 mm 0.00 in0.0 mm 0.00 in0.0 mm
01:35 PM 64.8°F18.2°C 55.9°F13.3°C 73% 7.9 mph S12.7 kmh S 12.3 mph19.8 kmh 29.31 in992.6 mb 0.00 in0.0 mm 0.00 in0.0 mm 0.00 in0.0 mm
01:30 PM 64.8°F18.2°C 55.9°F13.3°C 73% 7.0 mph S11.3 kmh S 15.0 mph24.1 kmh 29.31 in992.6 mb 0.00 in0.0 mm 0.00 in0.0 mm 0.00 in0.0 mm
01:25 PM 64.6°F18.1°C 55.8°F13.2°C 73% 6.6 mph S10.6 kmh S 9.8 mph15.8 kmh 29.31 in992.6 mb 0.00 in0.0 mm 0.00 in0.0 mm 0.00 in0.0 mm
01:20 PM 64.6°F18.1°C 55.4°F13.0°C 72% 7.3 mph SSW11.7 kmh SSW 17.4 mph28.0 kmh 29.31 in992.6 mb 0.00 in0.0 mm 0.00 in0.0 mm 0.00 in0.0 mm
01:15 PM 64.4°F18.0°C 55.4°F13.0°C 73% 3.6 mph SSW5.8 kmh SSW 9.8 mph15.8 kmh 29.32 in992.9 mb 0.00 in0.0 mm 0.00 in0.0 mm 0.00 in0.0 mm
01:10 PM 64.2°F17.9°C 55.4°F13.0°C 73% 4.8 mph SW7.7 kmh SW 7.4 mph11.9 kmh 29.32 in992.9 mb 0.00 in0.0 mm 0.00 in0.0 mm 0.00 in0.0 mm
01:05 PM 64.1°F17.8°C 55.3°F12.9°C 73% 4.1 mph S6.6 kmh S 9.8 mph15.8 kmh 29.33 in993.2 mb 0.00 in0.0 mm 0.00 in0.0 mm 0.00 in0.0 mm
01:00 PM 64.0°F17.8°C 55.2°F12.9°C 73% 5.9 mph S9.5 kmh S 12.3 mph19.8 kmh 29.33 in993.2 mb 0.00 in0.0 mm 0.00 in0.0 mm 0.00 in0.0 mm
12:55 PM 63.9°F17.7°C 55.0°F12.8°C 73% 6.4 mph S10.3 kmh S 15.0 mph24.1 kmh 29.34 in993.6 mb 0.00 in0.0 mm 0.00 in0.0 mm 0.00 in0.0 mm
12:50 PM 63.9°F17.7°C 54.7°F12.6°C 72% 7.8 mph S12.6 kmh S 12.3 mph19.8 kmh 29.34 in993.6 mb 0.00 in0.0 mm 0.00 in0.0 mm 0.00 in0.0 mm
12:45 PM 63.7°F17.6°C 54.6°F12.6°C 72% 5.5 mph SSW8.9 kmh SSW 9.8 mph15.8 kmh 29.34 in993.6 mb 0.00 in0.0 mm 0.00 in0.0 mm 0.00 in0.0 mm
12:40 PM 63.6°F17.6°C 54.4°F12.4°C 72% 4.3 mph SSW6.9 kmh SSW 9.8 mph15.8 kmh 29.35 in993.9 mb 0.00 in0.0 mm 0.00 in0.0 mm 0.00 in0.0 mm
12:35 PM 63.5°F17.5°C 54.3°F12.4°C 72% 7.9 mph SSE12.7 kmh SSE 15.0 mph24.1 kmh 29.35 in993.9 mb 0.00 in0.0 mm 0.00 in0.0 mm 0.00 in0.0 mm
12:30 PM 63.3°F17.4°C 53.8°F12.1°C 71% 12.3 mph S19.8 kmh S 22.4 mph36.0 kmh 29.35 in993.9 mb 0.00 in0.0 mm 0.00 in0.0 mm 0.00 in0.0 mm
12:25 PM 63.1°F17.3°C 53.9°F12.2°C 72% 7.2 mph S11.6 kmh S 15.0 mph24.1 kmh 29.35 in993.9 mb 0.00 in0.0 mm 0.00 in0.0 mm 0.00 in0.0 mm
12:20 PM 63.0°F17.2°C 53.8°F12.1°C 72% 6.9 mph SSW11.1 kmh SSW 15.0 mph24.1 kmh 29.36 in994.2 mb 0.00 in0.0 mm 0.00 in0.0 mm 0.00 in0.0 mm
12:15 PM 62.8°F17.1°C 53.7°F12.1°C 72% 10.5 mph S16.9 kmh S 22.4 mph36.0 kmh 29.35 in993.9 mb 0.00 in0.0 mm 0.00 in0.0 mm 0.00 in0.0 mm
12:10 PM 62.8°F17.1°C 53.6°F12.0°C 72% 8.1 mph SSE13.0 kmh SSE 15.0 mph24.1 kmh 29.36 in994.2 mb 0.00 in0.0 mm 0.00 in0.0 mm 0.00 in0.0 mm
12:05 PM 62.6°F17.0°C 53.5°F11.9°C 72% 12.0 mph S19.3 kmh S 22.4 mph36.0 kmh 29.35 in993.9 mb 0.00 in0.0 mm 0.00 in0.0 mm 0.00 in0.0 mm
12:00 PM 62.5°F16.9°C 53.3°F11.8°C 72% 8.9 mph S14.3 kmh S 17.4 mph28.0 kmh 29.35 in993.9 mb 0.00 in0.0 mm 0.00 in0.0 mm 0.00 in0.0 mm
11:55 AM 62.2°F16.8°C 53.1°F11.7°C 72% 14.2 mph S22.9 kmh S 24.8 mph39.9 kmh 29.36 in994.2 mb 0.00 in0.0 mm 0.00 in0.0 mm 0.00 in0.0 mm
11:50 AM 62.1°F16.7°C 52.8°F11.6°C 72% 13.4 mph S21.6 kmh S 22.4 mph36.0 kmh 29.36 in994.2 mb 0.00 in0.0 mm 0.00 in0.0 mm 0.00 in0.0 mm
11:45 AM 61.9°F16.6°C 52.4°F11.3°C 71% 5.9 mph S9.5 kmh S 15.0 mph24.1 kmh 29.37 in994.6 mb 0.00 in0.0 mm 0.00 in0.0 mm 0.00 in0.0 mm
11:40 AM 61.6°F16.4°C 52.4°F11.3°C 72% 6.4 mph S10.3 kmh S 19.9 mph32.0 kmh 29.37 in994.6 mb 0.00 in0.0 mm 0.00 in0.0 mm 0.00 in0.0 mm
11:35 AM 61.3°F16.3°C 52.5°F11.4°C 73% 3.7 mph SW6.0 kmh SW 9.8 mph15.8 kmh 29.38 in994.9 mb 0.00 in0.0 mm 0.00 in0.0 mm 0.00 in0.0 mm
11:30 AM 61.1°F16.2°C 52.7°F11.5°C 74% 5.3 mph S8.5 kmh S 15.0 mph24.1 kmh 29.38 in994.9 mb 0.00 in0.0 mm 0.00 in0.0 mm 0.00 in0.0 mm
11:25 AM 60.8°F16.0°C 52.5°F11.4°C 74% 6.2 mph S10.0 kmh S 15.0 mph24.1 kmh 29.38 in994.9 mb 0.00 in0.0 mm 0.00 in0.0 mm 0.00 in0.0 mm
11:20 AM 60.5°F15.8°C 52.1°F11.2°C 74% 3.0 mph SW4.8 kmh SW 4.9 mph7.9 kmh 29.39 in995.3 mb 0.00 in0.0 mm 0.00 in0.0 mm 0.00 in0.0 mm
11:15 AM 60.2°F15.7°C 51.9°F11.1°C 74% 6.8 mph SSE10.9 kmh SSE 22.4 mph36.0 kmh 29.39 in995.3 mb 0.00 in0.0 mm 0.00 in0.0 mm 0.00 in0.0 mm
11:10 AM 59.9°F15.5°C 51.6°F10.9°C 74% 7.5 mph S12.1 kmh S 19.9 mph32.0 kmh 29.39 in995.3 mb 0.00 in0.0 mm 0.00 in0.0 mm 0.00 in0.0 mm
11:05 AM 59.5°F15.3°C 51.4°F10.8°C 75% 5.4 mph SSW8.7 kmh SSW 12.3 mph19.8 kmh 29.39 in995.3 mb 0.00 in0.0 mm 0.00 in0.0 mm 0.00 in0.0 mm
11:00 AM 59.1°F15.1°C 51.4°F10.8°C 76% 5.1 mph S8.2 kmh S 9.8 mph15.8 kmh 29.39 in995.3 mb 0.00 in0.0 mm 0.00 in0.0 mm 0.00 in0.0 mm
10:55 AM 58.7°F14.8°C 51.4°F10.8°C 77% 6.5 mph S10.5 kmh S 15.0 mph24.1 kmh 29.40 in995.6 mb 0.00 in0.0 mm 0.00 in0.0 mm 0.00 in0.0 mm
10:50 AM 58.3°F14.6°C 51.4°F10.8°C 78% 7.7 mph S12.4 kmh S 15.0 mph24.1 kmh 29.40 in995.6 mb 0.00 in0.0 mm 0.00 in0.0 mm 0.00 in0.0 mm
10:45 AM 57.8°F14.3°C 51.2°F10.7°C 78% 8.7 mph S14.0 kmh S 15.0 mph24.1 kmh 29.40 in995.6 mb 0.00 in0.0 mm 0.00 in0.0 mm 0.00 in0.0 mm
10:40 AM 57.5°F14.2°C 51.5°F10.8°C 80% 6.3 mph S10.1 kmh S 15.0 mph24.1 kmh 29.40 in995.6 mb 0.00 in0.0 mm 0.00 in0.0 mm 0.00 in0.0 mm
10:35 AM 57.2°F14.0°C 51.5°F10.8°C 81% 5.8 mph S9.3 kmh S 12.3 mph19.8 kmh 29.41 in995.9 mb 0.00 in0.0 mm 0.00 in0.0 mm 0.00 in0.0 mm
10:30 AM 57.0°F13.9°C 51.4°F10.8°C 82% 6.4 mph S10.3 kmh S 15.0 mph24.1 kmh 29.41 in995.9 mb 0.00 in0.0 mm 0.00 in0.0 mm 0.00 in0.0 mm
10:25 AM 56.8°F13.8°C 51.5°F10.8°C 82% 5.9 mph SSE9.5 kmh SSE 12.3 mph19.8 kmh 29.40 in995.6 mb 0.00 in0.0 mm 0.00 in0.0 mm 0.00 in0.0 mm
10:20 AM 56.7°F13.7°C 51.6°F10.9°C 83% 8.9 mph S14.3 kmh S 12.3 mph19.8 kmh 29.40 in995.6 mb 0.00 in0.0 mm 0.00 in0.0 mm 0.00 in0.0 mm
10:15 AM 56.6°F13.7°C 51.5°F10.8°C 83% 7.4 mph S11.9 kmh S 12.3 mph19.8 kmh 29.40 in995.6 mb 0.00 in0.0 mm 0.00 in0.0 mm 0.00 in0.0 mm
10:10 AM 56.5°F13.6°C 51.4°F10.8°C 83% 8.5 mph SSE13.7 kmh SSE 17.4 mph28.0 kmh 29.41 in995.9 mb 0.00 in0.0 mm 0.00 in0.0 mm 0.00 in0.0 mm
10:05 AM 56.2°F13.4°C 51.1°F10.6°C 83% 9.0 mph S14.5 kmh S 15.0 mph24.1 kmh 29.41 in995.9 mb 0.00 in0.0 mm 0.00 in0.0 mm 0.00 in0.0 mm
10:00 AM 55.9°F13.3°C 50.9°F10.5°C 84% 10.2 mph SSE16.4 kmh SSE 17.4 mph28.0 kmh 29.41 in995.9 mb 0.00 in0.0 mm 0.00 in0.0 mm 0.00 in0.0 mm
09:55 AM 55.3°F12.9°C 50.5°F10.3°C 84% 6.5 mph S10.5 kmh S 12.3 mph19.8 kmh 29.42 in996.3 mb 0.00 in0.0 mm 0.00 in0.0 mm 0.00 in0.0 mm
09:50 AM 54.8°F12.7°C 50.1°F10.1°C 84% 7.4 mph S11.9 kmh S 19.9 mph32.0 kmh 29.42 in996.3 mb 0.00 in0.0 mm 0.00 in0.0 mm 0.00 in0.0 mm
09:45 AM 54.2°F12.3°C 49.6°F9.8°C 84% 7.1 mph SSE11.4 kmh SSE 12.3 mph19.8 kmh 29.41 in995.9 mb 0.00 in0.0 mm 0.00 in0.0 mm 0.00 in0.0 mm
09:40 AM 53.5°F11.9°C 49.5°F9.7°C 86% 3.4 mph SE5.5 kmh SE 7.4 mph11.9 kmh 29.41 in995.9 mb 0.00 in0.0 mm 0.00 in0.0 mm 0.00 in0.0 mm
09:35 AM 52.9°F11.6°C 49.4°F9.7°C 88% 3.2 mph S5.1 kmh S 7.4 mph11.9 kmh 29.42 in996.3 mb 0.00 in0.0 mm 0.00 in0.0 mm 0.00 in0.0 mm
09:30 AM 52.4°F11.3°C 48.9°F9.4°C 88% 3.5 mph S5.6 kmh S 7.4 mph11.9 kmh 29.42 in996.3 mb 0.00 in0.0 mm 0.00 in0.0 mm 0.00 in0.0 mm
09:25 AM 52.1°F11.2°C 49.2°F9.6°C 90% 5.7 mph S9.2 kmh S 12.3 mph19.8 kmh 29.42 in996.3 mb 0.00 in0.0 mm 0.00 in0.0 mm 0.00 in0.0 mm
09:20 AM 51.7°F10.9°C 49.1°F9.5°C 91% 5.1 mph S8.2 kmh S 7.4 mph11.9 kmh 29.42 in996.3 mb 0.00 in0.0 mm 0.00 in0.0 mm 0.00 in0.0 mm
09:15 AM 51.4°F10.8°C 48.9°F9.4°C 91% 3.9 mph SE6.3 kmh SE 7.4 mph11.9 kmh 29.41 in995.9 mb 0.00 in0.0 mm 0.00 in0.0 mm 0.00 in0.0 mm
09:10 AM 51.1°F10.6°C 48.9°F9.4°C 92% 5.0 mph SE8.0 kmh SE 9.8 mph15.8 kmh 29.42 in996.3 mb 0.00 in0.0 mm 0.00 in0.0 mm 0.00 in0.0 mm
09:05 AM 50.9°F10.5°C 48.9°F9.4°C 93% 4.7 mph S7.6 kmh S 12.3 mph19.8 kmh 29.43 in996.6 mb 0.00 in0.0 mm 0.00 in0.0 mm 0.00 in0.0 mm
09:00 AM 50.7°F10.4°C 48.8°F9.3°C 93% 4.6 mph S7.4 kmh S 9.8 mph15.8 kmh 29.42 in996.3 mb 0.00 in0.0 mm 0.00 in0.0 mm 0.00 in0.0 mm
08:55 AM 50.5°F10.3°C 48.5°F9.2°C 93% 5.9 mph S9.5 kmh S 12.3 mph19.8 kmh 29.43 in996.6 mb 0.00 in0.0 mm 0.00 in0.0 mm 0.00 in0.0 mm
08:50 AM 50.3°F10.2°C 48.5°F9.2°C 94% 5.8 mph SSE9.3 kmh SSE 7.4 mph11.9 kmh 29.44 in997.0 mb 0.00 in0.0 mm 0.00 in0.0 mm 0.00 in0.0 mm
08:45 AM 50.2°F10.1°C 48.5°F9.2°C 94% 6.2 mph S10.0 kmh S 9.8 mph15.8 kmh 29.43 in996.6 mb 0.00 in0.0 mm 0.00 in0.0 mm 0.00 in0.0 mm
08:40 AM 50.0°F10.0°C 48.4°F9.1°C 94% 6.1 mph SSE9.8 kmh SSE 12.3 mph19.8 kmh 29.43 in996.6 mb 0.00 in0.0 mm 0.00 in0.0 mm 0.00 in0.0 mm
08:35 AM 50.0°F10.0°C 48.3°F9.1°C 94% 5.6 mph SE9.0 kmh SE 9.8 mph15.8 kmh 29.43 in996.6 mb 0.00 in0.0 mm 0.00 in0.0 mm 0.00 in0.0 mm
08:30 AM 49.8°F9.9°C 48.1°F8.9°C 94% 6.8 mph SSE10.9 kmh SSE 12.3 mph19.8 kmh 29.43 in996.6 mb 0.00 in0.0 mm 0.00 in0.0 mm 0.00 in0.0 mm
08:25 AM 49.8°F9.9°C 48.1°F8.9°C 94% 6.1 mph SE9.8 kmh SE 12.3 mph19.8 kmh 29.41 in995.9 mb 0.00 in0.0 mm 0.00 in0.0 mm 0.00 in0.0 mm
08:20 AM 49.6°F9.8°C 48.0°F8.9°C 94% 7.1 mph SSE11.4 kmh SSE 15.0 mph24.1 kmh 29.43 in996.6 mb 0.00 in0.0 mm 0.00 in0.0 mm 0.00 in0.0 mm
08:15 AM 49.6°F9.8°C 47.9°F8.8°C 94% 5.9 mph SE9.5 kmh SE 9.8 mph15.8 kmh 29.43 in996.6 mb 0.00 in0.0 mm 0.00 in0.0 mm 0.00 in0.0 mm
08:10 AM 49.6°F9.8°C 48.2°F9.0°C 95% 4.7 mph SE7.6 kmh SE 9.8 mph15.8 kmh 29.43 in996.6 mb 0.00 in0.0 mm 0.00 in0.0 mm 0.00 in0.0 mm
08:05 AM 49.6°F9.8°C 48.0°F8.9°C 94% 6.7 mph SSE10.8 kmh SSE 12.3 mph19.8 kmh 29.43 in996.6 mb 0.00 in0.0 mm 0.00 in0.0 mm 0.00 in0.0 mm
08:00 AM 49.6°F9.8°C 47.9°F8.8°C 94% 6.0 mph SSE9.7 kmh SSE 12.3 mph19.8 kmh 29.43 in996.6 mb 0.00 in0.0 mm 0.00 in0.0 mm 0.00 in0.0 mm
07:55 AM 49.6°F9.8°C 47.9°F8.8°C 94% 5.8 mph SSE9.3 kmh SSE 12.3 mph19.8 kmh 29.43 in996.6 mb 0.00 in0.0 mm 0.00 in0.0 mm 0.00 in0.0 mm
07:50 AM 49.6°F9.8°C 47.9°F8.8°C 94% 7.0 mph SSE11.3 kmh SSE 12.3 mph19.8 kmh 29.43 in996.6 mb 0.00 in0.0 mm 0.00 in0.0 mm 0.00 in0.0 mm
07:45 AM 49.6°F9.8°C 47.9°F8.8°C 94% 8.7 mph SSE14.0 kmh SSE 12.3 mph19.8 kmh 29.42 in996.3 mb 0.00 in0.0 mm 0.00 in0.0 mm 0.00 in0.0 mm
07:40 AM 49.6°F9.8°C 47.9°F8.8°C 94% 8.5 mph SSE13.7 kmh SSE 17.4 mph28.0 kmh 29.42 in996.3 mb 0.00 in0.0 mm 0.00 in0.0 mm 0.00 in0.0 mm
07:35 AM 49.6°F9.8°C 47.9°F8.8°C 94% 7.0 mph SSE11.3 kmh SSE 12.3 mph19.8 kmh 29.43 in996.6 mb 0.00 in0.0 mm 0.00 in0.0 mm 0.00 in0.0 mm
07:30 AM 49.6°F9.8°C 47.9°F8.8°C 94% 5.8 mph SE9.3 kmh SE 9.8 mph15.8 kmh 29.43 in996.6 mb 0.00 in0.0 mm 0.00 in0.0 mm 0.00 in0.0 mm
07:25 AM 49.6°F9.8°C 47.9°F8.8°C 94% 6.1 mph SSE9.8 kmh SSE 12.3 mph19.8 kmh 29.43 in996.6 mb 0.00 in0.0 mm 0.00 in0.0 mm 0.00 in0.0 mm
07:20 AM 49.6°F9.8°C 47.9°F8.8°C 94% 5.9 mph SSE9.5 kmh SSE 9.8 mph15.8 kmh 29.43 in996.6 mb 0.00 in0.0 mm 0.00 in0.0 mm 0.00 in0.0 mm
07:15 AM 49.6°F9.8°C 47.9°F8.8°C 94% 7.4 mph SE11.9 kmh SE 12.3 mph19.8 kmh 29.43 in996.6 mb 0.00 in0.0 mm 0.00 in0.0 mm 0.00 in0.0 mm
07:10 AM 49.6°F9.8°C 47.9°F8.8°C 94% 5.2 mph SE8.4 kmh SE 9.8 mph15.8 kmh 29.43 in996.6 mb 0.00 in0.0 mm 0.00 in0.0 mm 0.00 in0.0 mm
07:05 AM 49.6°F9.8°C 47.9°F8.8°C 94% 7.3 mph SE11.7 kmh SE 12.3 mph19.8 kmh 29.43 in996.6 mb 0.00 in0.0 mm 0.00 in0.0 mm 0.00 in0.0 mm
07:00 AM 49.6°F9.8°C 47.9°F8.8°C 94% 7.6 mph SSE12.2 kmh SSE 15.0 mph24.1 kmh 29.43 in996.6 mb 0.00 in0.0 mm 0.00 in0.0 mm 0.00 in0.0 mm
06:55 AM 49.6°F9.8°C 47.9°F8.8°C 94% 7.3 mph SSE11.7 kmh SSE 15.0 mph24.1 kmh 29.43 in996.6 mb 0.00 in0.0 mm 0.00 in0.0 mm 0.00 in0.0 mm
06:50 AM 49.6°F9.8°C 47.9°F8.8°C 94% 8.6 mph S13.8 kmh S 15.0 mph24.1 kmh 29.43 in996.6 mb 0.00 in0.0 mm 0.00 in0.0 mm 0.00 in0.0 mm
06:45 AM 49.6°F9.8°C 47.9°F8.8°C 94% 7.7 mph SSE12.4 kmh SSE 12.3 mph19.8 kmh 29.43 in996.6 mb 0.00 in0.0 mm 0.00 in0.0 mm 0.00 in0.0 mm
06:40 AM 49.6°F9.8°C 47.9°F8.8°C 94% 6.4 mph SE10.3 kmh SE 9.8 mph15.8 kmh 29.44 in997.0 mb 0.00 in0.0 mm 0.00 in0.0 mm 0.00 in0.0 mm
06:35 AM 49.6°F9.8°C 47.9°F8.8°C 94% 7.7 mph SSE12.4 kmh SSE 12.3 mph19.8 kmh 29.45 in997.3 mb 0.00 in0.0 mm 0.00 in0.0 mm 0.00 in0.0 mm
06:30 AM 49.6°F9.8°C 47.9°F8.8°C 94% 4.4 mph SSE7.1 kmh SSE 9.8 mph15.8 kmh 29.44 in997.0 mb 0.00 in0.0 mm 0.00 in0.0 mm 0.00 in0.0 mm
06:25 AM 49.6°F9.8°C 47.9°F8.8°C 94% 6.3 mph SE10.1 kmh SE 12.3 mph19.8 kmh 29.43 in996.6 mb 0.00 in0.0 mm 0.00 in0.0 mm 0.00 in0.0 mm
06:20 AM 49.6°F9.8°C 47.8°F8.8°C 94% 7.0 mph SE11.3 kmh SE 12.3 mph19.8 kmh 29.44 in997.0 mb 0.00 in0.0 mm 0.00 in0.0 mm 0.00 in0.0 mm
06:15 AM 49.6°F9.8°C 47.7°F8.7°C 93% 6.3 mph SSE10.1 kmh SSE 9.8 mph15.8 kmh 29.44 in997.0 mb 0.00 in0.0 mm 0.00 in0.0 mm 0.00 in0.0 mm
06:10 AM 49.6°F9.8°C 47.7°F8.7°C 93% 5.2 mph SE8.4 kmh SE 12.3 mph19.8 kmh 29.44 in997.0 mb 0.00 in0.0 mm 0.00 in0.0 mm 0.00 in0.0 mm
06:05 AM 49.6°F9.8°C 47.7°F8.7°C 93% 6.8 mph SSE10.9 kmh SSE 12.3 mph19.8 kmh 29.43 in996.6 mb 0.00 in0.0 mm 0.00 in0.0 mm 0.00 in0.0 mm
06:00 AM 49.6°F9.8°C 47.7°F8.7°C 93% 7.0 mph SSE11.3 kmh SSE 12.3 mph19.8 kmh 29.43 in996.6 mb 0.00 in0.0 mm 0.00 in0.0 mm 0.00 in0.0 mm
05:55 AM 49.6°F9.8°C 47.7°F8.7°C 93% 7.5 mph S12.1 kmh S 12.3 mph19.8 kmh 29.44 in997.0 mb 0.00 in0.0 mm 0.00 in0.0 mm 0.00 in0.0 mm
05:50 AM 49.6°F9.8°C 47.7°F8.7°C 93% 4.5 mph SE7.2 kmh SE 7.4 mph11.9 kmh 29.45 in997.3 mb 0.00 in0.0 mm 0.00 in0.0 mm 0.00 in0.0 mm
05:45 AM 49.6°F9.8°C 47.7°F8.7°C 93% 5.7 mph S9.2 kmh S 9.8 mph15.8 kmh 29.45 in997.3 mb 0.00 in0.0 mm 0.00 in0.0 mm 0.00 in0.0 mm
05:40 AM 49.5°F9.7°C 47.6°F8.7°C 93% 4.8 mph SSE7.7 kmh SSE 9.8 mph15.8 kmh 29.46 in997.6 mb 0.00 in0.0 mm 0.00 in0.0 mm 0.00 in0.0 mm
05:35 AM 49.5°F9.7°C 47.6°F8.7°C 93% 4.6 mph S7.4 kmh S 7.4 mph11.9 kmh 29.46 in997.6 mb 0.00 in0.0 mm 0.00 in0.0 mm 0.00 in0.0 mm
05:30 AM 49.5°F9.7°C 47.6°F8.7°C 93% 5.0 mph SSE8.0 kmh SSE 7.4 mph11.9 kmh 29.46 in997.6 mb 0.00 in0.0 mm 0.00 in0.0 mm 0.00 in0.0 mm
05:25 AM 49.5°F9.7°C 47.6°F8.7°C 93% 5.1 mph SSE8.2 kmh SSE 9.8 mph15.8 kmh 29.45 in997.3 mb 0.00 in0.0 mm 0.00 in0.0 mm 0.00 in0.0 mm
05:20 AM 49.5°F9.7°C 47.3°F8.5°C 92% 6.6 mph SSE10.6 kmh SSE 12.3 mph19.8 kmh 29.44 in997.0 mb 0.00 in0.0 mm 0.00 in0.0 mm 0.00 in0.0 mm
05:15 AM 49.3°F9.6°C 47.1°F8.4°C 92% 6.8 mph SSE10.9 kmh SSE 12.3 mph19.8 kmh 29.44 in997.0 mb 0.00 in0.0 mm 0.00 in0.0 mm 0.00 in0.0 mm
05:10 AM 49.3°F9.6°C 47.1°F8.4°C 92% 6.7 mph S10.8 kmh S 12.3 mph19.8 kmh 29.44 in997.0 mb 0.00 in0.0 mm 0.00 in0.0 mm 0.00 in0.0 mm
05:05 AM 49.2°F9.6°C 46.9°F8.3°C 92% 5.3 mph SSE8.5 kmh SSE 7.4 mph11.9 kmh 29.45 in997.3 mb 0.00 in0.0 mm 0.00 in0.0 mm 0.00 in0.0 mm
05:00 AM 49.1°F9.5°C 46.9°F8.3°C 92% 5.1 mph SSE8.2 kmh SSE 9.8 mph15.8 kmh 29.45 in997.3 mb 0.00 in0.0 mm 0.00 in0.0 mm 0.00 in0.0 mm
04:55 AM 49.1°F9.5°C 46.9°F8.3°C 92% 4.6 mph SSE7.4 kmh SSE 9.8 mph15.8 kmh 29.45 in997.3 mb 0.00 in0.0 mm 0.00 in0.0 mm 0.00 in0.0 mm
04:50 AM 48.9°F9.4°C 46.7°F8.2°C 92% 5.0 mph S8.0 kmh S 7.4 mph11.9 kmh 29.44 in997.0 mb 0.00 in0.0 mm 0.00 in0.0 mm 0.00 in0.0 mm
04:45 AM 48.9°F9.4°C 46.7°F8.2°C 92% 4.5 mph SSE7.2 kmh SSE 9.8 mph15.8 kmh 29.45 in997.3 mb 0.00 in0.0 mm 0.00 in0.0 mm 0.00 in0.0 mm
04:40 AM 48.9°F9.4°C 46.7°F8.2°C 92% 5.1 mph SSE8.2 kmh SSE 7.4 mph11.9 kmh 29.45 in997.3 mb 0.00 in0.0 mm 0.00 in0.0 mm 0.00 in0.0 mm
04:35 AM 48.8°F9.3°C 46.6°F8.1°C 92% 3.4 mph SE5.5 kmh SE 4.9 mph7.9 kmh 29.45 in997.3 mb 0.00 in0.0 mm 0.00 in0.0 mm 0.00 in0.0 mm
04:30 AM 48.7°F9.3°C 46.5°F8.1°C 92% 5.2 mph S8.4 kmh S 9.8 mph15.8 kmh 29.46 in997.6 mb 0.00 in0.0 mm 0.00 in0.0 mm 0.00 in0.0 mm
04:25 AM 48.7°F9.3°C 46.4°F8.0°C 92% 3.1 mph SE5.0 kmh SE 4.9 mph7.9 kmh 29.46 in997.6 mb 0.00 in0.0 mm 0.00 in0.0 mm 0.00 in0.0 mm
04:20 AM 48.6°F9.2°C 46.4°F8.0°C 92% 2.5 mph SSE4.0 kmh SSE 7.4 mph11.9 kmh 29.46 in997.6 mb 0.00 in0.0 mm 0.00 in0.0 mm 0.00 in0.0 mm
04:15 AM 48.6°F9.2°C 46.4°F8.0°C 92% 4.0 mph SE6.4 kmh SE 7.4 mph11.9 kmh 29.47 in998.0 mb 0.00 in0.0 mm 0.00 in0.0 mm 0.00 in0.0 mm
04:10 AM 48.6°F9.2°C 46.4°F8.0°C 92% 3.0 mph SE4.8 kmh SE 7.4 mph11.9 kmh 29.47 in998.0 mb 0.00 in0.0 mm 0.00 in0.0 mm 0.00 in0.0 mm
04:05 AM 48.7°F9.3°C 46.4°F8.0°C 92% 2.2 mph SE3.5 kmh SE 4.9 mph7.9 kmh 29.47 in998.0 mb 0.00 in0.0 mm 0.00 in0.0 mm 0.00 in0.0 mm
04:00 AM 48.7°F9.3°C 46.5°F8.1°C 92% 3.5 mph SE5.6 kmh SE 9.8 mph15.8 kmh 29.46 in997.6 mb 0.00 in0.0 mm 0.00 in0.0 mm 0.00 in0.0 mm
03:55 AM 48.8°F9.3°C 46.6°F8.1°C 92% 3.6 mph SSE5.8 kmh SSE 7.4 mph11.9 kmh 29.47 in998.0 mb 0.00 in0.0 mm 0.00 in0.0 mm 0.00 in0.0 mm
03:50 AM 48.9°F9.4°C 46.7°F8.2°C 92% 3.0 mph SSE4.8 kmh SSE 4.9 mph7.9 kmh 29.47 in998.0 mb 0.00 in0.0 mm 0.00 in0.0 mm 0.00 in0.0 mm
03:45 AM 49.0°F9.4°C 46.5°F8.1°C 91% 3.4 mph SE5.5 kmh SE 4.9 mph7.9 kmh 29.47 in998.0 mb 0.00 in0.0 mm 0.00 in0.0 mm 0.00 in0.0 mm
03:40 AM 49.1°F9.5°C 46.6°F8.1°C 91% 4.2 mph SE6.8 kmh SE 9.8 mph15.8 kmh 29.48 in998.3 mb 0.00 in0.0 mm 0.00 in0.0 mm 0.00 in0.0 mm
03:35 AM 49.1°F9.5°C 46.6°F8.1°C 91% 2.0 mph SE3.2 kmh SE 4.9 mph7.9 kmh 29.47 in998.0 mb 0.00 in0.0 mm 0.00 in0.0 mm 0.00 in0.0 mm
03:30 AM 49.1°F9.5°C 46.6°F8.1°C 91% 3.3 mph ESE5.3 kmh ESE 7.4 mph11.9 kmh 29.48 in998.3 mb 0.00 in0.0 mm 0.00 in0.0 mm 0.00 in0.0 mm
03:25 AM 49.3°F9.6°C 46.8°F8.2°C 91% 2.2 mph SE3.5 kmh SE 4.9 mph7.9 kmh 29.48 in998.3 mb 0.00 in0.0 mm 0.00 in0.0 mm 0.00 in0.0 mm
03:20 AM 49.3°F9.6°C 46.8°F8.2°C 91% 2.4 mph SSE3.9 kmh SSE 7.4 mph11.9 kmh 29.49 in998.6 mb 0.00 in0.0 mm 0.00 in0.0 mm 0.00 in0.0 mm
03:15 AM 49.3°F9.6°C 46.8°F8.2°C 91% 2.1 mph SE3.4 kmh SE 4.9 mph7.9 kmh 29.49 in998.6 mb 0.00 in0.0 mm 0.00 in0.0 mm 0.00 in0.0 mm
03:10 AM 49.3°F9.6°C 46.7°F8.2°C 91% 2.7 mph SE4.3 kmh SE 7.4 mph11.9 kmh 29.49 in998.6 mb 0.00 in0.0 mm 0.00 in0.0 mm 0.00 in0.0 mm
03:05 AM 49.1°F9.5°C 46.6°F8.1°C 91% 2.2 mph SE3.5 kmh SE 4.9 mph7.9 kmh 29.49 in998.6 mb 0.00 in0.0 mm 0.00 in0.0 mm 0.00 in0.0 mm
03:00 AM 49.1°F9.5°C 46.6°F8.1°C 91% 3.2 mph ESE5.1 kmh ESE 7.4 mph11.9 kmh 29.49 in998.6 mb 0.00 in0.0 mm 0.00 in0.0 mm 0.00 in0.0 mm
02:55 AM 49.1°F9.5°C 46.6°F8.1°C 91% 1.7 mph ESE2.7 kmh ESE 4.9 mph7.9 kmh 29.49 in998.6 mb 0.00 in0.0 mm 0.00 in0.0 mm 0.00 in0.0 mm
02:50 AM 49.1°F9.5°C 46.6°F8.1°C 91% 1.3 mph SE2.1 kmh SE 2.5 mph4.0 kmh 29.49 in998.6 mb 0.00 in0.0 mm 0.00 in0.0 mm 0.00 in0.0 mm
02:45 AM 48.9°F9.4°C 46.4°F8.0°C 91% 1.7 mph ESE2.7 kmh ESE 4.9 mph7.9 kmh 29.49 in998.6 mb 0.00 in0.0 mm 0.00 in0.0 mm 0.00 in0.0 mm
02:40 AM 48.9°F9.4°C 46.4°F8.0°C 91% 2.8 mph ESE4.5 kmh ESE 4.9 mph7.9 kmh 29.49 in998.6 mb 0.00 in0.0 mm 0.00 in0.0 mm 0.00 in0.0 mm
02:35 AM 48.7°F9.3°C 46.2°F7.9°C 91% 1.8 mph ESE2.9 kmh ESE 4.9 mph7.9 kmh 29.49 in998.6 mb 0.00 in0.0 mm 0.00 in0.0 mm 0.00 in0.0 mm
02:30 AM 48.7°F9.3°C 46.2°F7.9°C 91% 0.7 mph ESE1.1 kmh ESE 2.5 mph4.0 kmh 29.50 in999.0 mb 0.00 in0.0 mm 0.00 in0.0 mm 0.00 in0.0 mm
02:25 AM 48.6°F9.2°C 46.4°F8.0°C 92% 1.5 mph E2.4 kmh E 2.5 mph4.0 kmh 29.50 in999.0 mb 0.00 in0.0 mm 0.00 in0.0 mm 0.00 in0.0 mm
02:20 AM 48.6°F9.2°C 46.4°F8.0°C 92% 2.2 mph ESE3.5 kmh ESE 4.9 mph7.9 kmh 29.50 in999.0 mb 0.00 in0.0 mm 0.00 in0.0 mm 0.00 in0.0 mm
02:15 AM 48.7°F9.3°C 46.5°F8.1°C 92% 1.7 mph ESE2.7 kmh ESE 2.5 mph4.0 kmh 29.49 in998.6 mb 0.00 in0.0 mm 0.00 in0.0 mm 0.00 in0.0 mm
02:10 AM 48.7°F9.3°C 46.2°F7.9°C 91% 0.7 mph E1.1 kmh E 2.5 mph4.0 kmh 29.49 in998.6 mb 0.00 in0.0 mm 0.00 in0.0 mm 0.00 in0.0 mm
02:05 AM 48.9°F9.4°C 46.3°F7.9°C 91% 0.5 mph E0.8 kmh E 2.5 mph4.0 kmh 29.49 in998.6 mb 0.00 in0.0 mm 0.00 in0.0 mm 0.00 in0.0 mm
02:00 AM 49.0°F9.4°C 46.5°F8.1°C 91% 1.6 mph E2.6 kmh E 2.5 mph4.0 kmh 29.50 in999.0 mb 0.00 in0.0 mm 0.00 in0.0 mm 0.00 in0.0 mm
01:55 AM 49.1°F9.5°C 46.6°F8.1°C 91% 1.1 mph ESE1.8 kmh ESE 2.5 mph4.0 kmh 29.49 in998.6 mb 0.00 in0.0 mm 0.00 in0.0 mm 0.00 in0.0 mm
01:50 AM 49.2°F9.6°C 46.7°F8.2°C 91% 0.8 mph ESE1.3 kmh ESE 2.5 mph4.0 kmh 29.49 in998.6 mb 0.00 in0.0 mm 0.00 in0.0 mm 0.00 in0.0 mm
01:45 AM 49.3°F9.6°C 46.5°F8.1°C 90% 1.4 mph SE2.3 kmh SE 4.9 mph7.9 kmh 29.49 in998.6 mb 0.00 in0.0 mm 0.00 in0.0 mm 0.00 in0.0 mm
01:40 AM 49.5°F9.7°C 46.7°F8.2°C 90% 1.2 mph SE1.9 kmh SE 4.9 mph7.9 kmh 29.49 in998.6 mb 0.00 in0.0 mm 0.00 in0.0 mm 0.00 in0.0 mm
01:35 AM 49.6°F9.8°C 46.5°F8.1°C 89% 1.3 mph SSE2.1 kmh SSE 4.9 mph7.9 kmh 29.49 in998.6 mb 0.00 in0.0 mm 0.00 in0.0 mm 0.00 in0.0 mm
01:30 AM 49.8°F9.9°C 46.5°F8.1°C 88% 1.8 mph SE2.9 kmh SE 4.9 mph7.9 kmh 29.49 in998.6 mb 0.00 in0.0 mm 0.00 in0.0 mm 0.00 in0.0 mm
01:25 AM 50.0°F10.0°C 46.5°F8.1°C 88% 2.6 mph S4.2 kmh S 4.9 mph7.9 kmh 29.49 in998.6 mb 0.00 in0.0 mm 0.00 in0.0 mm 0.00 in0.0 mm
01:20 AM 50.1°F10.1°C 46.6°F8.1°C 88% 3.0 mph SSE4.8 kmh SSE 7.4 mph11.9 kmh 29.50 in999.0 mb 0.00 in0.0 mm 0.00 in0.0 mm 0.00 in0.0 mm
01:15 AM 50.2°F10.1°C 46.2°F7.9°C 86% 2.8 mph S4.5 kmh S 4.9 mph7.9 kmh 29.50 in999.0 mb 0.00 in0.0 mm 0.00 in0.0 mm 0.00 in0.0 mm
01:10 AM 50.3°F10.2°C 46.3°F7.9°C 86% 4.0 mph SSE6.4 kmh SSE 7.4 mph11.9 kmh 29.50 in999.0 mb 0.00 in0.0 mm 0.00 in0.0 mm 0.00 in0.0 mm
01:05 AM 50.4°F10.2°C 46.4°F8.0°C 86% 4.6 mph SSE7.4 kmh SSE 7.4 mph11.9 kmh 29.50 in999.0 mb 0.00 in0.0 mm 0.00 in0.0 mm 0.00 in0.0 mm
01:00 AM 50.5°F10.3°C 46.3°F7.9°C 86% 3.1 mph SSE5.0 kmh SSE 7.4 mph11.9 kmh 29.51 in999.3 mb 0.00 in0.0 mm 0.00 in0.0 mm 0.00 in0.0 mm
12:55 AM 50.5°F10.3°C 46.2°F7.9°C 85% 2.8 mph S4.5 kmh S 4.9 mph7.9 kmh 29.51 in999.3 mb 0.00 in0.0 mm 0.00 in0.0 mm 0.00 in0.0 mm
12:50 AM 50.7°F10.4°C 46.3°F7.9°C 85% 5.9 mph SSE9.5 kmh SSE 9.8 mph15.8 kmh 29.51 in999.3 mb 0.00 in0.0 mm 0.00 in0.0 mm 0.00 in0.0 mm
12:45 AM 50.7°F10.4°C 46.1°F7.8°C 84% 3.7 mph S6.0 kmh S 7.4 mph11.9 kmh 29.51 in999.3 mb 0.00 in0.0 mm 0.00 in0.0 mm 0.00 in0.0 mm
12:40 AM 50.9°F10.5°C 46.2°F7.9°C 84% 3.6 mph S5.8 kmh S 7.4 mph11.9 kmh 29.50 in999.0 mb 0.00 in0.0 mm 0.00 in0.0 mm 0.00 in0.0 mm
12:35 AM 50.9°F10.5°C 46.2°F7.9°C 84% 5.5 mph SSE8.9 kmh SSE 9.8 mph15.8 kmh 29.50 in999.0 mb 0.00 in0.0 mm 0.00 in0.0 mm 0.00 in0.0 mm
12:30 AM 51.1°F10.6°C 46.1°F7.8°C 83% 6.0 mph SSE9.7 kmh SSE 9.8 mph15.8 kmh 29.51 in999.3 mb 0.00 in0.0 mm 0.00 in0.0 mm 0.00 in0.0 mm
12:25 AM 51.1°F10.6°C 46.2°F7.9°C 83% 5.1 mph S8.2 kmh S 9.8 mph15.8 kmh 29.51 in999.3 mb 0.00 in0.0 mm 0.00 in0.0 mm 0.00 in0.0 mm
12:20 AM 51.3°F10.7°C 46.2°F7.9°C 83% 5.6 mph S9.0 kmh S 9.8 mph15.8 kmh 29.51 in999.3 mb 0.00 in0.0 mm 0.00 in0.0 mm 0.00 in0.0 mm
12:15 AM 51.4°F10.8°C 46.1°F7.8°C 82% 4.7 mph S7.6 kmh S 9.8 mph15.8 kmh 29.52 in999.7 mb 0.00 in0.0 mm 0.00 in0.0 mm 0.00 in0.0 mm
12:10 AM 51.4°F10.8°C 46.1°F7.8°C 82% 6.6 mph S10.6 kmh S 12.3 mph19.8 kmh 29.52 in999.7 mb 0.00 in0.0 mm 0.00 in0.0 mm 0.00 in0.0 mm
12:05 AM 51.6°F10.9°C 46.1°F7.8°C 81% 6.5 mph S10.5 kmh S 15.0 mph24.1 kmh 29.52 in999.7 mb 0.00 in0.0 mm 0.00 in0.0 mm 0.00 in0.0 mm
12:00 AM 51.7°F10.9°C 46.0°F7.8°C 81% 6.0 mph S9.7 kmh S 9.8 mph15.8 kmh 29.52 in999.7 mb 0.00 in0.0 mm 0.00 in0.0 mm 0.00 in0.0 mm